Time;durP1;ratioP1;P1;durP2;ratioP2;P2;SDS_P1;SDS_P2;PMS_P1;PMS_P2;Temp;Humidity;BMP_temperature;BMP_pressure;BME280_temperature;BME280_humidity;BME280_pressure;Samples;Min_cycle;Max_cycle;Signal;HPM_P1;HPM_P2
2023/12/26 00:01:46;;;;;;;;;;;7.40;99.90;;;6.66;100.00;97298.63;5017673;28;1633;-68
2023/12/26 00:04:13;;;;;;;;;;;7.40;99.90;;;6.59;100.00;97251.56;5013489;28;1483;-68
2023/12/26 00:06:44;;;;;;;;;;;7.30;99.90;;;6.61;100.00;97265.25;5016525;28;1547;-68
2023/12/26 00:09:15;;;;;;;;;;;7.40;99.90;;;6.63;100.00;97294.41;5017952;28;1408;-68
2023/12/26 00:11:46;;;;;;;;;;;7.30;99.90;;;6.59;100.00;97249.00;5017994;28;1477;-69
2023/12/26 00:14:16;;;;;;;;;;;7.30;99.90;;;6.69;100.00;97244.38;5017288;28;1971;-68
2023/12/26 00:16:44;;;;;;;;;;;7.30;99.90;;;6.60;100.00;97255.00;5014040;28;1525;-69
2023/12/26 00:19:11;;;;;;;;;;;7.40;99.90;;;6.61;100.00;97248.94;5004526;28;1931;-69
2023/12/26 00:21:38;;;;;;;;;;;7.30;99.90;;;6.63;100.00;97235.09;5031704;28;1417;-69
2023/12/26 00:24:06;;;;;;;;;;;7.30;99.90;;;6.67;100.00;97239.25;5016231;28;1428;-68
2023/12/26 00:26:33;;;;;;;;;;;7.30;99.90;;;6.77;100.00;97275.06;5031334;28;1443;-68
2023/12/26 00:29:00;;;;;;;;;;;7.30;99.90;;;6.76;100.00;97252.75;5019602;28;3060;-70
2023/12/26 00:31:27;;;;;;;;;;;7.40;99.90;;;6.66;100.00;97237.59;5013841;28;1632;-70
2023/12/26 00:33:54;;;;;;;;;;;7.40;99.90;;;6.68;100.00;97258.16;5013945;28;2040;-69
2023/12/26 00:36:21;;;;;;;;;;;7.40;99.90;;;6.67;100.00;97252.16;5017913;28;1548;-70
2023/12/26 00:38:50;;;;;;;;;;;7.40;99.90;;;6.64;100.00;97238.53;5016343;28;1352;-70
2023/12/26 00:41:17;;;;;;;;;;;7.40;99.90;;;6.75;100.00;97251.94;5017684;28;1683;-70
2023/12/26 00:43:44;;;;;;;;;;;7.40;99.90;;;6.68;100.00;97240.97;5016760;28;1540;-70
2023/12/26 00:46:11;;;;;;;;;;;7.40;99.90;;;6.76;100.00;97253.59;5017230;28;1606;-69
2023/12/26 00:48:38;;;;;;;;;;;7.40;99.90;;;6.76;100.00;97216.66;5018303;28;1317;-69
2023/12/26 00:51:05;;;;;;;;;;;7.40;99.90;;;6.74;100.00;97247.66;5018975;28;2022;-71
2023/12/26 00:53:33;;;;;;;;;;;7.40;99.90;;;6.77;100.00;97249.28;5015966;28;1492;-71
2023/12/26 00:55:59;;;;;;;;;;;7.40;99.90;;;6.80;100.00;97244.88;5016251;28;2056;-68
2023/12/26 00:58:26;;;;;;;;;;;7.40;99.90;;;6.76;100.00;97265.66;5018244;28;5121;-70
2023/12/26 01:00:53;;;;;;;;;;;7.40;99.90;;;6.76;100.00;97225.22;5019712;28;1378;-70
2023/12/26 01:03:22;;;;;;;;;;;7.50;99.90;;;6.81;100.00;97261.19;5019027;28;1325;-69
2023/12/26 01:05:49;;;;;;;;;;;7.50;99.90;;;6.87;100.00;97261.00;5016931;28;1624;-70
2023/12/26 01:08:20;;;;;;;;;;;7.50;99.90;;;6.90;100.00;97233.34;5014350;28;1644;-70
2023/12/26 01:10:47;;;;;;;;;;;7.50;99.90;;;6.92;100.00;97264.25;5014380;28;3082;-70
2023/12/26 01:13:14;;;;;;;;;;;7.50;99.90;;;7.00;100.00;97271.75;5014982;28;1438;-70
2023/12/26 01:15:41;;;;;;;;;;;7.50;99.90;;;6.96;100.00;97265.03;5031925;28;1902;-70
2023/12/26 01:18:08;;;;;;;;;;;7.50;99.90;;;6.93;100.00;97257.34;5015332;28;1378;-70
2023/12/26 01:20:36;;;;;;;;;;;7.60;99.90;;;7.03;100.00;97266.50;5016446;28;1296;-69
2023/12/26 01:23:03;;;;;;;;;;;7.60;99.90;;;6.98;100.00;97300.19;5019064;28;1444;-70
2023/12/26 01:25:30;;;;;;;;;;;7.60;99.90;;;7.03;100.00;97271.66;5018493;28;2048;-70
2023/12/26 01:27:57;;;;;;;;;;;7.60;99.90;;;7.01;100.00;97289.75;5015766;28;1543;-70
2023/12/26 01:30:24;;;;;;;;;;;7.60;99.90;;;7.08;100.00;97295.56;5015798;28;1712;-69
2023/12/26 01:32:51;;;;;;;;;;;7.60;99.90;;;6.98;100.00;97292.47;5013994;28;1417;-71
2023/12/26 01:35:18;;;;;;;;;;;7.60;99.90;;;7.08;100.00;97303.31;5015390;28;2015;-69
2023/12/26 01:37:45;;;;;;;;;;;7.60;99.90;;;7.03;100.00;97300.88;5017298;28;1999;-71
2023/12/26 01:40:12;;;;;;;;;;;7.60;99.90;;;7.08;100.00;97354.94;5016938;28;1205;-70
2023/12/26 01:42:41;;;;;;;;;;;7.50;99.90;;;7.11;100.00;97316.94;5016500;28;1360;-70
2023/12/26 01:45:08;;;;;;;;;;;7.60;99.90;;;6.98;100.00;97295.03;5015148;28;1587;-70
2023/12/26 01:47:36;;;;;;;;;;;7.60;99.90;;;6.94;100.00;97318.41;5016642;28;1313;-69
2023/12/26 01:50:04;;;;;;;;;;;7.60;99.90;;;7.02;100.00;97312.09;5015306;28;1083;-70
2023/12/26 01:52:35;;;;;;;;;;;7.60;99.90;;;6.96;100.00;97332.94;5016228;28;3065;-70
2023/12/26 01:55:02;;;;;;;;;;;7.50;99.90;;;7.00;100.00;97344.88;5016869;28;1981;-70
2023/12/26 01:57:32;;;;;;;;;;;7.50;99.90;;;7.13;100.00;97353.88;5013913;28;5116;-70
2023/12/26 02:00:00;;;;;;;;;;;7.60;99.90;;;6.99;100.00;97343.16;5017301;28;1728;-70
2023/12/26 02:02:28;;;;;;;;;;;7.50;99.90;;;6.98;100.00;97362.13;5034429;28;1436;-71
2023/12/26 02:04:56;;;;;;;;;;;7.50;99.90;;;6.92;100.00;97344.25;5019659;28;1494;-70
2023/12/26 02:07:23;;;;;;;;;;;7.60;99.90;;;7.01;100.00;97348.28;5020502;28;1412;-70
2023/12/26 02:09:50;;;;;;;;;;;7.60;99.90;;;7.02;100.00;97358.53;5018062;28;1089;-70
2023/12/26 02:12:17;;;;;;;;;;;7.50;99.90;;;6.92;100.00;97349.41;5020986;28;1465;-71
2023/12/26 02:14:44;;;;;;;;;;;7.50;99.90;;;6.95;100.00;97357.03;5021981;28;1902;-70
2023/12/26 02:17:16;;;;;;;;;;;7.50;99.90;;;7.00;100.00;97362.94;5018327;28;1376;-70
2023/12/26 02:19:43;;;;;;;;;;;7.50;99.90;;;6.94;100.00;97352.78;5019799;28;1384;-71
2023/12/26 02:22:10;;;;;;;;;;;7.50;99.90;;;6.94;100.00;97360.53;5019696;28;2424;-70
2023/12/26 02:24:37;;;;;;;;;;;7.50;99.90;;;6.85;100.00;97343.59;5019967;28;1444;-70
2023/12/26 02:27:04;;;;;;;;;;;7.50;99.90;;;7.01;100.00;97368.94;5019433;28;1348;-70
2023/12/26 02:29:31;;;;;;;;;;;7.50;99.90;;;6.82;100.00;97350.56;5018271;28;1509;-70
2023/12/26 02:32:00;;;;;;;;;;;7.50;99.90;;;6.94;100.00;97360.53;5018727;28;1457;-70
2023/12/26 02:34:27;;;;;;;;;;;7.50;99.90;;;6.86;100.00;97347.84;5038183;28;3106;-70
2023/12/26 02:36:57;;;;;;;;;;;7.50;99.90;;;6.87;100.00;97338.41;5035045;28;1717;-69
2023/12/26 02:39:24;;;;;;;;;;;7.50;99.90;;;6.82;100.00;97366.91;5018552;28;1368;-70
2023/12/26 02:41:51;;;;;;;;;;;7.50;99.90;;;6.80;100.00;97347.22;5019024;28;1308;-70
2023/12/26 02:44:17;;;;;;;;;;;7.50;99.90;;;6.83;100.00;97352.28;5017431;28;2046;-71
2023/12/26 02:46:44;;;;;;;;;;;7.50;99.90;;;6.76;100.00;97333.56;5019154;28;1537;-70
2023/12/26 02:49:11;;;;;;;;;;;7.50;99.90;;;6.91;100.00;97368.34;5022149;28;2257;-70
2023/12/26 02:51:38;;;;;;;;;;;7.50;99.90;;;6.88;100.00;97378.78;5002683;28;1335;-71
2023/12/26 02:54:05;;;;;;;;;;;7.50;99.90;;;6.89;100.00;97363.25;5020476;28;1394;-70
2023/12/26 02:56:32;;;;;;;;;;;7.60;99.90;;;6.91;100.00;97364.06;5019102;28;1979;-70
2023/12/26 02:58:59;;;;;;;;;;;7.50;99.90;;;6.89;100.00;97363.25;5021723;28;1391;-70
2023/12/26 03:01:26;;;;;;;;;;;7.60;99.90;;;6.87;100.00;97367.63;5019149;28;1337;-70
2023/12/26 03:03:52;;;;;;;;;;;7.60;99.90;;;6.87;100.00;97359.88;5035117;28;2162;-70
2023/12/26 03:06:20;;;;;;;;;;;7.60;99.90;;;7.00;100.00;97375.84;5019208;28;1350;-70
2023/12/26 03:08:47;;;;;;;;;;;7.60;99.90;;;7.01;100.00;97379.25;5035434;28;1395;-70
2023/12/26 03:11:14;;;;;;;;;;;7.60;99.90;;;7.07;100.00;97364.41;5020224;28;1317;-71
2023/12/26 03:13:40;;;;;;;;;;;7.60;99.90;;;6.96;100.00;97360.50;5014688;28;1410;-70
2023/12/26 03:16:07;;;;;;;;;;;7.60;99.90;;;7.00;100.00;97364.63;5021014;28;3099;-70
2023/12/26 03:18:34;;;;;;;;;;;7.70;99.90;;;7.01;100.00;97361.19;5020805;28;1323;-70
2023/12/26 03:21:01;;;;;;;;;;;7.70;99.90;;;7.11;100.00;97368.56;5018121;28;1502;-70
2023/12/26 03:23:28;;;;;;;;;;;7.70;99.90;;;7.01;100.00;97384.41;5018567;28;1392;-70
2023/12/26 03:25:55;;;;;;;;;;;7.70;99.90;;;7.05;100.00;97381.69;5034475;28;1057;-70
2023/12/26 03:28:21;;;;;;;;;;;7.70;99.90;;;7.09;100.00;97378.13;5018460;28;1364;-70
2023/12/26 03:30:48;;;;;;;;;;;7.80;99.90;;;7.03;100.00;97385.22;5020222;28;2062;-70
2023/12/26 03:33:16;;;;;;;;;;;7.70;99.90;;;7.05;100.00;97373.94;5016533;28;1388;-71
2023/12/26 03:35:43;;;;;;;;;;;7.80;99.90;;;7.15;100.00;97363.31;5018603;28;1989;-70
2023/12/26 03:38:11;;;;;;;;;;;7.70;99.90;;;7.10;100.00;97371.22;5016142;28;1357;-70
2023/12/26 03:40:38;;;;;;;;;;;7.70;99.90;;;7.09;100.00;97377.25;5016783;28;1408;-70
2023/12/26 03:43:04;;;;;;;;;;;7.70;99.90;;;7.14;100.00;97390.88;5020363;28;1447;-70
2023/12/26 03:45:31;;;;;;;;;;;7.70;99.90;;;7.12;100.00;97377.16;5019516;28;2039;-71
2023/12/26 03:47:58;;;;;;;;;;;7.70;99.90;;;7.14;100.00;97359.91;5019451;28;1114;-70
2023/12/26 03:50:26;;;;;;;;;;;7.60;99.90;;;6.96;100.00;97356.16;5016349;28;1457;-70
2023/12/26 03:52:53;;;;;;;;;;;7.70;99.90;;;7.07;100.00;97361.84;5007168;28;1330;-70
2023/12/26 03:55:21;;;;;;;;;;;7.70;99.90;;;7.03;100.00;97367.97;5020824;28;1906;-70
2023/12/26 03:57:48;;;;;;;;;;;7.70;99.90;;;7.17;100.00;97367.53;5017337;28;5334;-70
2023/12/26 04:00:16;;;;;;;;;;;7.80;99.90;;;7.14;100.00;97377.97;5002010;28;3401;-71
2023/12/26 04:02:42;;;;;;;;;;;7.70;99.90;;;7.09;100.00;97362.63;5016879;28;1316;-72
2023/12/26 04:05:10;;;;;;;;;;;7.80;99.90;;;7.15;100.00;97371.06;5019405;28;1368;-69
2023/12/26 04:07:37;;;;;;;;;;;7.80;99.90;;;7.18;100.00;97389.84;5034163;28;1134;-71
2023/12/26 04:10:05;;;;;;;;;;;7.80;99.90;;;7.21;100.00;97389.78;5019213;28;1484;-70
2023/12/26 04:12:32;;;;;;;;;;;7.90;99.90;;;7.12;100.00;97390.06;5019926;28;1280;-70
2023/12/26 04:15:00;;;;;;;;;;;7.80;99.90;;;7.25;100.00;97404.28;5017776;28;1914;-70
2023/12/26 04:17:27;;;;;;;;;;;7.80;99.90;;;7.13;100.00;97402.91;5019607;28;1276;-70
2023/12/26 04:19:54;;;;;;;;;;;7.90;99.90;;;7.30;100.00;97411.88;5020057;28;1103;-70
2023/12/26 04:22:21;;;;;;;;;;;7.80;99.90;;;7.30;100.00;97409.31;5018495;28;1472;-70
2023/12/26 04:24:48;;;;;;;;;;;7.80;99.90;;;7.15;100.00;97399.47;5021167;28;1329;-71
2023/12/26 04:27:15;;;;;;;;;;;7.90;99.90;;;7.12;100.00;97377.16;5017731;28;2036;-70
2023/12/26 04:29:42;;;;;;;;;;;7.80;99.90;;;7.18;100.00;97381.28;5015072;28;1241;-70
2023/12/26 04:32:10;;;;;;;;;;;7.80;99.90;;;7.19;100.00;97378.66;5016053;28;1398;-70
2023/12/26 04:34:38;;;;;;;;;;;7.90;99.90;;;7.31;100.00;97405.81;5018551;28;1444;-71
2023/12/26 04:37:05;;;;;;;;;;;7.90;99.90;;;7.27;100.00;97399.06;5018698;28;1898;-70
2023/12/26 04:39:32;;;;;;;;;;;7.90;99.90;;;7.20;100.00;97395.81;5018235;28;1491;-70
2023/12/26 04:41:58;;;;;;;;;;;7.90;99.90;;;7.20;100.00;97416.47;5016371;28;1454;-70
2023/12/26 04:44:26;;;;;;;;;;;7.90;99.90;;;7.17;100.00;97402.84;5015847;28;1403;-69
2023/12/26 04:46:52;;;;;;;;;;;7.90;99.90;;;7.29;100.00;97433.41;5020122;28;1499;-69
2023/12/26 04:49:19;;;;;;;;;;;7.90;99.90;;;7.33;100.00;97402.28;5016329;28;1256;-70
2023/12/26 04:51:46;;;;;;;;;;;7.90;99.90;;;7.24;100.00;97396.59;5016282;28;1703;-70
2023/12/26 04:54:13;;;;;;;;;;;7.90;99.90;;;7.22;100.00;97412.09;5017100;28;1373;-70
2023/12/26 04:56:43;;;;;;;;;;;7.90;99.90;;;7.32;100.00;97416.09;5017978;28;5214;-70
2023/12/26 04:59:10;;;;;;;;;;;7.90;99.90;;;7.30;100.00;97420.47;5019661;28;1470;-70
2023/12/26 05:01:44;;;;;;;;;;;7.90;99.90;;;7.29;100.00;97425.66;5018562;28;1393;-70
2023/12/26 05:04:11;;;;;;;;;;;7.90;99.90;;;7.24;100.00;97440.47;5031560;28;1363;-71
2023/12/26 05:06:38;;;;;;;;;;;7.90;99.90;;;7.28;100.00;97424.84;5019484;28;1395;-70
2023/12/26 05:09:05;;;;;;;;;;;7.90;99.90;;;7.38;100.00;97445.19;5016636;28;1440;-70
2023/12/26 05:11:31;;;;;;;;;;;7.90;99.90;;;7.24;100.00;97456.78;5016386;28;1233;-70
2023/12/26 05:13:58;;;;;;;;;;;7.80;99.90;;;7.18;100.00;97432.91;5017749;28;1395;-70
2023/12/26 05:16:27;;;;;;;;;;;7.90;99.90;;;7.18;100.00;97438.91;5013928;28;1976;-70
2023/12/26 05:18:54;;;;;;;;;;;7.90;99.90;;;7.12;100.00;97428.78;5019810;28;1315;-71
2023/12/26 05:21:22;;;;;;;;;;;7.80;99.90;;;7.05;100.00;97437.63;5017565;28;1317;-71
2023/12/26 05:23:50;;;;;;;;;;;7.80;99.90;;;6.97;100.00;97453.31;5013986;28;3271;-70
2023/12/26 05:26:17;;;;;;;;;;;7.80;99.90;;;6.97;100.00;97458.47;5017370;28;1487;-70
2023/12/26 05:28:44;;;;;;;;;;;7.70;99.90;;;6.91;100.00;97481.88;5015671;28;1326;-70
2023/12/26 05:31:10;;;;;;;;;;;7.70;99.90;;;6.98;100.00;97487.69;5018614;28;1456;-71
2023/12/26 05:33:37;;;;;;;;;;;7.60;99.90;;;6.90;100.00;97485.34;5017678;28;1490;-70
2023/12/26 05:36:05;;;;;;;;;;;7.70;99.90;;;6.91;100.00;97497.34;5014148;28;1993;-72
2023/12/26 05:38:32;;;;;;;;;;;7.70;99.90;;;6.97;100.00;97492.03;5014950;28;1102;-70
2023/12/26 05:41:03;;;;;;;;;;;7.70;99.90;;;6.93;100.00;97505.06;5014858;28;1355;-71
2023/12/26 05:43:30;;;;;;;;;;;7.60;99.90;;;6.96;100.00;97487.78;5016879;28;1408;-71
2023/12/26 05:46:00;;;;;;;;;;;7.60;99.90;;;6.99;100.00;97510.06;5020747;28;1444;-70
2023/12/26 05:48:28;;;;;;;;;;;7.60;99.90;;;6.93;100.00;97521.38;5030735;28;1095;-71
2023/12/26 05:50:55;;;;;;;;;;;7.60;99.90;;;6.97;100.00;97524.72;5016117;28;1085;-71
2023/12/26 05:53:23;;;;;;;;;;;7.60;99.90;;;6.97;100.00;97537.63;5018536;28;1380;-70
2023/12/26 05:55:50;;;;;;;;;;;7.60;99.90;;;6.99;100.00;97541.03;5016833;28;1993;-70
2023/12/26 05:58:17;;;;;;;;;;;7.60;99.90;;;6.96;100.00;97535.97;5016444;28;5207;-71
2023/12/26 06:00:44;;;;;;;;;;;7.60;99.90;;;7.05;100.00;97552.00;5018908;28;1629;-70
2023/12/26 06:03:11;;;;;;;;;;;7.70;99.90;;;7.00;100.00;97553.88;5016230;28;1304;-70
2023/12/26 06:05:38;;;;;;;;;;;7.60;99.90;;;6.91;100.00;97531.78;5016880;28;1533;-70
2023/12/26 06:08:07;;;;;;;;;;;7.60;99.90;;;6.82;100.00;97544.94;5016731;28;1113;-70
2023/12/26 06:10:34;;;;;;;;;;;7.60;99.90;;;6.79;100.00;97551.91;5016585;28;1373;-71
2023/12/26 06:13:02;;;;;;;;;;;7.60;99.90;;;6.73;100.00;97549.47;5014249;28;1453;-70
2023/12/26 06:15:29;;;;;;;;;;;7.60;99.90;;;6.76;100.00;97578.63;5012989;28;3202;-70
2023/12/26 06:17:59;;;;;;;;;;;7.40;99.90;;;6.73;100.00;97565.81;5017319;28;1345;-70
2023/12/26 06:20:27;;;;;;;;;;;7.40;99.90;;;6.68;100.00;97572.81;5017655;28;3030;-70
2023/12/26 06:22:54;;;;;;;;;;;7.40;99.90;;;6.70;100.00;97578.78;5017876;28;1392;-70
2023/12/26 06:25:21;;;;;;;;;;;7.40;99.90;;;6.73;100.00;97578.72;5019099;28;1400;-67
2023/12/26 06:27:48;;;;;;;;;;;7.40;99.90;;;6.69;100.00;97587.44;5018809;28;1388;-72
2023/12/26 06:30:15;;;;;;;;;;;7.30;99.90;;;6.66;100.00;97585.78;5015146;28;1367;-70
2023/12/26 06:32:42;;;;;;;;;;;7.40;99.90;;;6.59;100.00;97573.06;5017212;28;1416;-70
2023/12/26 06:35:09;;;;;;;;;;;7.30;99.90;;;6.60;100.00;97596.25;5017002;28;1090;-70
2023/12/26 06:37:36;;;;;;;;;;;7.30;99.90;;;6.54;100.00;97590.41;5013968;28;2024;-71
2023/12/26 06:40:04;;;;;;;;;;;7.30;99.90;;;6.49;100.00;97611.16;5013910;28;1380;-70
2023/12/26 06:42:31;;;;;;;;;;;7.20;99.90;;;6.42;100.00;97614.78;5015667;28;1343;-71
2023/12/26 06:44:58;;;;;;;;;;;7.20;99.90;;;6.48;100.00;97604.31;5018183;28;1244;-70
2023/12/26 06:47:24;;;;;;;;;;;7.20;99.90;;;6.50;100.00;97620.59;5017213;28;1323;-71
2023/12/26 06:49:53;;;;;;;;;;;7.20;99.90;;;6.47;100.00;97607.75;5017945;28;1090;-70
2023/12/26 06:52:20;;;;;;;;;;;7.20;99.90;;;6.44;100.00;97613.00;5016441;28;1324;-71
2023/12/26 06:54:48;;;;;;;;;;;7.10;99.90;;;6.51;100.00;97624.84;5020391;28;1400;-70
2023/12/26 06:57:17;;;;;;;;;;;7.10;99.90;;;6.52;100.00;97633.44;5021203;28;1918;-70
2023/12/26 06:59:46;;;;;;;;;;;7.10;99.90;;;6.47;100.00;97623.22;5019089;28;1454;-70
2023/12/26 07:02:13;;;;;;;;;;;7.10;99.90;;;6.49;100.00;97635.19;5018135;28;1474;-70
2023/12/26 07:04:43;;;;;;;;;;;7.20;99.90;;;6.47;100.00;97655.00;5019493;28;1380;-70
2023/12/26 07:07:11;;;;;;;;;;;7.20;99.90;;;6.48;100.00;97635.25;5018702;28;1411;-69
2023/12/26 07:09:38;;;;;;;;;;;7.20;99.90;;;6.51;100.00;97632.59;5016747;28;1372;-70
2023/12/26 07:12:06;;;;;;;;;;;7.20;99.90;;;6.48;100.00;97638.69;5020836;28;1394;-70
2023/12/26 07:14:34;;;;;;;;;;;7.10;99.90;;;6.46;100.00;97652.50;5020204;28;1414;-70
2023/12/26 07:17:00;;;;;;;;;;;7.10;99.90;;;6.43;100.00;97639.66;5020346;28;3159;-70
2023/12/26 07:19:27;;;;;;;;;;;7.10;99.90;;;6.43;100.00;97645.69;5020421;28;1101;-71
2023/12/26 07:21:54;;;;;;;;;;;7.10;99.90;;;6.45;100.00;97655.94;5019916;28;1530;-70
2023/12/26 07:24:21;;;;;;;;;;;7.10;99.90;;;6.36;100.00;97628.66;5021492;28;1407;-70
2023/12/26 07:26:48;;;;;;;;;;;7.10;99.90;;;6.37;100.00;97679.34;5020513;28;1212;-70
2023/12/26 07:29:15;;;;;;;;;;;7.10;99.90;;;6.45;100.00;97674.00;5022355;28;1411;-71
2023/12/26 07:31:42;;;;;;;;;;;7.10;99.90;;;6.45;100.00;97681.72;5018311;28;1423;-70
2023/12/26 07:34:09;;;;;;;;;;;7.10;99.90;;;6.39;100.00;97671.59;5019189;28;1377;-71
2023/12/26 07:36:37;;;;;;;;;;;7.10;99.90;;;6.44;100.00;97678.31;5017204;28;1890;-70
2023/12/26 07:39:05;;;;;;;;;;;7.10;99.90;;;6.46;100.00;97663.66;5017743;28;1077;-69
2023/12/26 07:41:32;;;;;;;;;;;7.10;99.90;;;6.41;100.00;97668.09;5017682;28;1396;-67
2023/12/26 07:43:59;;;;;;;;;;;7.10;99.90;;;6.45;100.00;97671.41;5019045;28;1395;-69
2023/12/26 07:46:26;;;;;;;;;;;7.10;99.90;;;6.53;100.00;97678.97;5034191;28;1382;-68
2023/12/26 07:48:54;;;;;;;;;;;7.10;99.90;;;6.47;100.00;97685.97;5019108;28;1337;-67
2023/12/26 07:51:21;;;;;;;;;;;7.10;99.90;;;6.47;100.00;97696.28;5018556;28;1385;-68
2023/12/26 07:53:48;;;;;;;;;;;7.10;99.90;;;6.49;100.00;97680.78;5020839;28;1371;-68
2023/12/26 07:56:15;;;;;;;;;;;7.10;99.90;;;6.55;100.00;97713.31;5016139;28;1906;-68
2023/12/26 07:58:42;;;;;;;;;;;7.10;99.90;;;6.57;100.00;97709.81;5020555;28;5051;-68
2023/12/26 08:01:09;;;;;;;;;;;7.10;99.90;;;6.47;100.00;97708.31;5018497;28;1382;-68
2023/12/26 08:03:36;;;;;;;;;;;7.10;99.90;;;6.44;100.00;97719.56;5015919;28;1353;-70
2023/12/26 08:06:03;;;;;;;;;;;7.10;99.90;;;6.48;100.00;97710.03;5017788;28;1095;-68
2023/12/26 08:08:30;;;;;;;;;;;7.10;99.90;;;6.33;100.00;97693.19;5018344;28;1435;-68
2023/12/26 08:10:57;;;;;;;;;;;7.10;99.90;;;6.29;100.00;97730.22;5023900;28;1401;-68
2023/12/26 08:13:24;;;;;;;;;;;7.00;99.90;;;6.33;100.00;97720.72;5019219;28;3269;-69
2023/12/26 08:15:51;;;;;;;;;;;7.10;99.90;;;6.33;100.00;97736.19;5016433;28;1405;-68
2023/12/26 08:18:18;;;;;;;;;;;7.00;99.90;;;6.33;100.00;97712.97;5015513;28;1902;-68
2023/12/26 08:20:45;;;;;;;;;;;7.00;99.90;;;6.48;100.00;97726.34;5014952;28;1369;-68
2023/12/26 08:23:13;;;;;;;;;;;7.00;99.90;;;6.43;100.00;97729.91;5021141;28;1434;-69
2023/12/26 08:25:39;;;;;;;;;;;7.00;99.90;;;6.43;100.00;97722.16;5019723;28;1309;-69
2023/12/26 08:28:06;;;;;;;;;;;7.00;99.90;;;6.41;100.00;97701.59;5018709;28;1715;-68
2023/12/26 08:30:33;;;;;;;;;;;7.00;99.90;;;6.36;100.00;97718.88;5015744;28;1441;-68
2023/12/26 08:33:05;;;;;;;;;;;7.00;99.90;;;6.40;100.00;97728.25;5018310;28;1449;-69
2023/12/26 08:35:32;;;;;;;;;;;7.10;99.90;;;6.42;100.00;97735.97;5018364;28;1341;-68
2023/12/26 08:37:59;;;;;;;;;;;7.00;99.90;;;6.47;100.00;97718.66;5019248;28;1922;-68
2023/12/26 08:40:26;;;;;;;;;;;7.00;99.90;;;6.49;100.00;97747.81;5013825;28;1194;-68
2023/12/26 08:42:53;;;;;;;;;;;7.00;99.90;;;6.46;100.00;97724.69;5031894;28;1327;-69
2023/12/26 08:45:21;;;;;;;;;;;7.00;99.90;;;6.45;100.00;97728.13;5015509;28;1380;-67
2023/12/26 08:47:49;;;;;;;;;;;7.10;99.90;;;6.40;100.00;97717.94;5017301;28;1826;-68
2023/12/26 08:50:16;;;;;;;;;;;7.00;99.90;;;6.42;100.00;97712.75;5018334;28;1514;-68
2023/12/26 08:52:43;;;;;;;;;;;7.10;99.90;;;6.43;100.00;97746.25;5019284;28;1376;-68
2023/12/26 08:55:10;;;;;;;;;;;7.00;99.90;;;6.36;100.00;97730.94;5019230;28;986;-68
2023/12/26 08:57:37;;;;;;;;;;;7.00;99.90;;;6.33;100.00;97743.91;5035066;28;5040;-68
2023/12/26 09:00:05;;;;;;;;;;;7.00;99.90;;;6.35;100.00;97750.72;5020631;28;1345;-68
2023/12/26 09:02:34;;;;;;;;;;;7.00;99.90;;;6.37;100.00;97767.00;5013499;28;1410;-67
2023/12/26 09:05:02;;;;;;;;;;;7.00;99.90;;;6.37;100.00;97779.06;5017247;28;1360;-67
2023/12/26 09:07:29;;;;;;;;;;;7.00;99.90;;;6.40;100.00;97778.97;5032901;28;2037;-68
2023/12/26 09:09:56;;;;;;;;;;;7.00;99.90;;;6.32;100.00;97776.59;5014314;28;1194;-68
2023/12/26 09:12:23;;;;;;;;;;;7.00;99.90;;;6.39;100.00;97780.72;5015194;28;1455;-67
2023/12/26 09:14:50;;;;;;;;;;;7.00;99.90;;;6.43;100.00;97778.91;5016928;28;995;-68
2023/12/26 09:17:17;;;;;;;;;;;7.00;99.90;;;6.48;100.00;97780.50;5032511;28;1985;-67
2023/12/26 09:19:44;;;;;;;;;;;7.00;99.90;;;6.49;100.00;97783.94;5017400;28;1146;-71
2023/12/26 09:22:11;;;;;;;;;;;7.10;99.90;;;6.43;100.00;97799.53;5014881;28;1416;-68
2023/12/26 09:24:41;;;;;;;;;;;7.10;99.90;;;6.49;100.00;97789.91;5018647;28;1404;-68
2023/12/26 09:27:08;;;;;;;;;;;7.10;99.90;;;6.55;100.00;97786.38;5015115;28;1248;-70
2023/12/26 09:29:37;;;;;;;;;;;7.10;99.90;;;6.48;100.00;97775.34;5018471;28;1860;-69
2023/12/26 09:32:04;;;;;;;;;;;7.10;99.90;;;6.52;100.00;97798.47;5016393;28;1357;-68
2023/12/26 09:34:31;;;;;;;;;;;7.10;99.90;;;6.48;100.00;97798.56;5014525;28;1204;-69
2023/12/26 09:36:58;;;;;;;;;;;7.10;99.90;;;6.51;100.00;97807.94;5016888;28;1983;-69
2023/12/26 09:39:25;;;;;;;;;;;7.10;99.90;;;6.60;100.00;97814.63;5012449;28;1389;-68
2023/12/26 09:41:52;;;;;;;;;;;7.10;99.90;;;6.56;100.00;97800.09;5022431;28;1287;-68
2023/12/26 09:44:20;;;;;;;;;;;7.20;99.90;;;6.64;100.00;97814.53;5033457;28;1527;-69
2023/12/26 09:46:47;;;;;;;;;;;7.10;99.90;;;6.48;100.00;97802.88;5014673;28;1148;-69
2023/12/26 09:49:15;;;;;;;;;;;7.20;99.90;;;6.49;100.00;97797.66;5018644;28;1518;-70
2023/12/26 09:51:44;;;;;;;;;;;7.20;99.90;;;6.49;100.00;97802.81;5014272;28;1373;-69
2023/12/26 09:54:12;;;;;;;;;;;7.20;99.90;;;6.56;100.00;97819.00;5013045;28;1296;-69
2023/12/26 09:56:41;;;;;;;;;;;7.20;99.90;;;6.64;100.00;97824.00;5017448;28;5478;-69
2023/12/26 09:59:10;;;;;;;;;;;7.20;99.90;;;6.57;100.00;97812.97;5015507;28;1704;-69
2023/12/26 10:01:36;;;;;;;;;;;7.20;99.90;;;6.58;100.00;97831.88;5016145;28;1287;-68
2023/12/26 10:04:06;;;;;;;;;;;7.20;99.90;;;6.58;100.00;97848.19;5018793;28;3168;-68
2023/12/26 10:06:33;;;;;;;;;;;7.20;99.90;;;6.64;100.00;97831.75;5015589;28;1541;-69
2023/12/26 10:09:00;;;;;;;;;;;7.30;99.90;;;6.68;100.00;97841.97;5014413;28;1255;-67
2023/12/26 10:11:28;;;;;;;;;;;7.20;99.90;;;6.56;100.00;97838.78;5014368;28;1404;-68
2023/12/26 10:13:55;;;;;;;;;;;7.20;99.90;;;6.54;100.00;97832.81;5016132;28;1619;-69
2023/12/26 10:16:22;;;;;;;;;;;7.20;99.90;;;6.59;100.00;97855.06;5016438;28;1299;-68
2023/12/26 10:18:52;;;;;;;;;;;7.30;99.90;;;6.61;100.00;97858.44;5019714;28;1985;-69
2023/12/26 10:21:19;;;;;;;;;;;7.20;99.90;;;6.60;100.00;97853.31;5015355;28;1396;-68
2023/12/26 10:23:46;;;;;;;;;;;7.20;99.90;;;6.68;100.00;97848.81;5018811;28;1399;-68
2023/12/26 10:26:14;;;;;;;;;;;7.30;99.90;;;6.77;100.00;97851.19;5019523;28;1424;-68
2023/12/26 10:28:41;;;;;;;;;;;7.30;99.90;;;6.73;100.00;97846.13;5016366;28;1319;-68
2023/12/26 10:31:13;;;;;;;;;;;7.30;99.90;;;6.69;100.00;97840.22;5019654;28;1346;-68
2023/12/26 10:33:41;;;;;;;;;;;7.30;99.90;;;6.76;100.00;97844.34;5024536;28;1684;-69
2023/12/26 10:36:11;;;;;;;;;;;7.30;99.90;;;6.67;100.00;97835.09;5017418;28;1336;-68
2023/12/26 10:38:44;;;;;;;;;;;7.40;99.90;;;6.73;100.00;97779.94;5023080;28;1930;-68
2023/12/26 10:41:23;;;;;;;;;;;7.40;99.90;;;6.78;100.00;97772.09;5035477;28;1390;-68
2023/12/26 10:43:54;;;;;;;;;;;7.40;99.90;;;6.73;100.00;97782.50;5019867;28;1340;-68
2023/12/26 10:46:21;;;;;;;;;;;7.40;99.90;;;6.75;100.00;97785.91;5018895;28;1531;-68
2023/12/26 10:48:49;;;;;;;;;;;7.40;99.90;;;6.72;100.00;97783.38;5019326;28;1425;-69
2023/12/26 10:51:18;;;;;;;;;;;7.40;99.90;;;6.80;100.00;97786.63;5018335;28;1594;-69
2023/12/26 10:54:04;;;;;;;;;;;7.40;99.90;;;6.80;100.00;97794.38;5019930;28;3213;-68
2023/12/26 10:56:32;;;;;;;;;;;7.30;99.90;;;6.82;100.00;97804.63;5015211;28;1404;-69
2023/12/26 10:59:00;;;;;;;;;;;7.40;99.90;;;6.73;100.00;97790.25;5022817;28;1910;-69
2023/12/26 13:51:33;;;;;;;;;;;8.20;99.90;;;7.65;100.00;97842.13;5017541;28;1300;-70
2023/12/26 13:54:00;;;;;;;;;;;8.10;99.90;;;7.72;100.00;97822.16;5015734;28;1428;-69
2023/12/26 13:56:27;;;;;;;;;;;8.20;99.90;;;7.79;100.00;97818.50;5016888;28;1542;-69
2023/12/26 13:59:35;;;;;;;;;;;8.20;99.90;;;7.75;100.00;97832.41;5034547;28;5190;-69
2023/12/26 14:02:39;;;;;;;;;;;8.20;99.90;;;7.78;100.00;97824.59;5021975;28;1624;-68
2023/12/26 14:05:44;;;;;;;;;;;8.10;99.90;;;7.65;100.00;97834.38;5020010;28;3317;-69
2023/12/26 14:08:49;;;;;;;;;;;8.20;99.90;;;7.81;100.00;97821.06;5036374;28;1301;-69
2023/12/26 14:11:53;;;;;;;;;;;8.30;99.90;;;7.85;100.00;97833.00;5024314;28;1333;-70
2023/12/26 14:15:00;;;;;;;;;;;8.30;99.90;;;7.95;100.00;97818.94;5021854;28;1380;-70
2023/12/26 14:18:08;;;;;;;;;;;8.30;99.90;;;7.86;100.00;97843.28;5020377;28;2053;-70
2023/12/26 14:21:12;;;;;;;;;;;8.30;99.90;;;7.99;100.00;97848.97;5019852;28;1419;-70
2023/12/26 14:24:17;;;;;;;;;;;8.30;99.90;;;7.91;100.00;97864.72;5019948;28;1412;-69
2023/12/26 14:27:22;;;;;;;;;;;8.30;99.90;;;7.94;100.00;97867.19;5018073;28;1360;-69
2023/12/26 14:30:27;;;;;;;;;;;8.30;99.90;;;7.82;100.00;97844.25;5019729;28;1557;-69
2023/12/26 14:33:31;;;;;;;;;;;8.40;99.90;;;7.91;100.00;97862.13;5040366;28;1437;-69